Time;durP1;ratioP1;P1;durP2;ratioP2;P2;SDS_P1;SDS_P2;PMS_P1;PMS_P2;Temp;Humidity;BMP_temperature;BMP_pressure;BME280_temperature;BME280_humidity;BME280_pressure;Samples;Min_cycle;Max_cycle;Signal;HPM_P1;HPM_P2
2023/07/26 00:01:57;;;;;;;4.80;1.35;;;13.90;99.90;;;;;;5134130;27;19919;-65
2023/07/26 00:04:24;;;;;;;2.38;1.42;;;13.80;99.90;;;;;;5126503;27;20027;-65
2023/07/26 00:06:51;;;;;;;4.30;1.58;;;13.80;99.90;;;;;;5130798;27;20039;-65
2023/07/26 00:09:18;;;;;;;3.97;1.63;;;13.80;99.90;;;;;;5133988;27;20412;-65
2023/07/26 00:11:45;;;;;;;;;;;13.80;99.90;;;;;;5132600;27;20122;-65
2023/07/26 00:14:13;;;;;;;2.55;1.52;;;13.80;99.90;;;;;;5134502;27;20019;-65
2023/07/26 00:16:40;;;;;;;4.20;1.40;;;14.30;99.90;;;;;;5134116;27;20043;-65
2023/07/26 00:19:07;;;;;;;1.60;1.20;;;13.70;99.90;;;;;;5134517;27;20054;-65
2023/07/26 00:21:33;;;;;;;2.47;1.20;;;13.70;99.90;;;;;;5130624;27;20031;-65
2023/07/26 00:24:01;;;;;;;2.40;1.20;;;13.70;99.90;;;;;;5134686;27;20051;-65
2023/07/26 00:26:27;;;;;;;4.32;1.27;;;13.70;99.90;;;;;;5131420;27;20043;-65
2023/07/26 00:28:54;;;;;;;2.28;1.10;;;13.80;99.90;;;;;;5134883;27;20028;-64
2023/07/26 00:31:21;;;;;;;1.40;1.00;;;13.80;99.90;;;;;;5133265;27;20062;-65
2023/07/26 00:33:48;;;;;;;4.53;0.90;;;13.70;99.90;;;;;;5116345;27;20051;-65
2023/07/26 00:36:15;;;;;;;14.07;2.03;;;13.70;99.90;;;;;;5126268;27;20043;-65
2023/07/26 00:38:41;;;;;;;13.95;1.38;;;13.60;99.90;;;;;;5116399;27;20043;-65
2023/07/26 00:41:10;;;;;;;4.40;0.90;;;13.50;99.90;;;;;;5133056;27;20341;-65
2023/07/26 00:43:37;;;;;;;2.83;1.00;;;13.40;99.90;;;;;;5129283;27;20127;-65
2023/07/26 00:46:06;;;;;;;1.42;0.65;;;13.30;99.90;;;;;;5108824;27;20047;-64
2023/07/26 00:48:35;;;;;;;2.72;1.10;;;13.10;99.90;;;;;;5134687;27;20152;-64
2023/07/26 00:51:03;;;;;;;3.63;1.40;;;13.00;99.90;;;;;;5108161;27;20411;-64
2023/07/26 00:53:30;;;;;;;3.88;1.38;;;12.80;99.90;;;;;;5126220;27;20039;-65
2023/07/26 00:55:58;;;;;;;;;;;12.70;99.90;;;;;;5132891;27;20047;-64
2023/07/26 00:58:25;;;;;;;3.85;1.58;;;12.50;99.90;;;;;;5134246;27;20332;-64
2023/07/26 01:00:53;;;;;;;3.50;1.60;;;12.40;99.90;;;;;;5107343;28;20052;-64
2023/07/26 01:03:20;;;;;;;4.53;1.60;;;12.30;99.90;;;;;;5132637;27;20046;-64
2023/07/26 01:05:53;;;;;;;7.13;1.73;;;12.20;99.90;;;;;;5132197;27;20099;-64
2023/07/26 01:08:50;;;;;;;3.80;1.70;;;12.20;99.90;;;;;;5104747;27;20046;-64
2023/07/26 01:11:57;;;;;;;5.63;1.67;;;12.20;99.90;;;;;;5118856;27;20055;-65
2023/07/26 01:14:36;;;;;;;3.25;2.03;;;12.30;99.90;;;;;;5082134;27;20065;-65
2023/07/26 01:17:04;;;;;;;5.20;2.00;;;12.30;99.90;;;;;;5131354;27;20495;-64
2023/07/26 01:19:31;;;;;;;5.53;2.20;;;12.40;99.90;;;;;;5106314;27;20156;-64
2023/07/26 01:21:59;;;;;;;6.32;2.10;;;12.50;99.90;;;;;;5114632;27;20046;-64
2023/07/26 01:24:26;;;;;;;5.80;2.38;;;12.40;99.90;;;;;;5114166;27;20039;-65
2023/07/26 01:26:53;;;;;;;4.60;1.70;;;12.40;99.90;;;;;;5131872;27;20043;-64
2023/07/26 01:29:20;;;;;;;6.03;1.67;;;12.40;99.90;;;;;;5132193;27;20046;-64
2023/07/26 01:31:48;;;;;;;4.75;2.10;;;12.40;99.90;;;;;;5133704;27;20092;-64
2023/07/26 01:34:15;;;;;;;6.22;2.17;;;12.50;99.90;;;;;;5128426;27;20043;-64
2023/07/26 01:36:43;;;;;;;3.00;1.80;;;12.50;99.90;;;;;;5110082;28;20126;-64
2023/07/26 01:39:10;;;;;;;3.28;2.05;;;12.50;99.90;;;;;;5110299;27;20051;-64
2023/07/26 01:41:39;;;;;;;5.25;2.20;;;12.50;99.90;;;;;;5106397;27;20043;-64
2023/07/26 01:44:06;;;;;;;4.47;1.88;;;12.50;99.90;;;;;;5112815;27;20047;-65
2023/07/26 01:46:33;;;;;;;5.63;1.83;;;12.50;99.90;;;;;;5133420;27;20031;-64
2023/07/26 01:49:00;;;;;;;3.58;1.90;;;12.50;99.90;;;;;;5131399;27;20383;-64
2023/07/26 01:51:27;;;;;;;10.48;2.30;;;12.50;99.90;;;;;;5114181;27;20054;-65
2023/07/26 01:53:53;;;;;;;2.22;1.75;;;12.50;99.90;;;;;;5110009;27;20043;-64
2023/07/26 01:56:20;;;;;;;6.07;2.35;;;12.40;99.90;;;;;;5114362;27;20059;-64
2023/07/26 01:58:47;;;;;;;2.85;1.77;;;13.20;99.90;;;;;;5115842;27;20047;-64
2023/07/26 02:01:14;;;;;;;3.58;2.00;;;12.40;99.90;;;;;;5105317;27;20046;-64
2023/07/26 02:03:41;;;;;;;2.58;1.77;;;12.40;99.90;;;;;;5113474;27;20031;-64
2023/07/26 02:06:08;;;;;;;;;;;12.50;99.90;;;;;;5114738;27;20264;-65
2023/07/26 02:08:35;;;;;;;4.35;2.13;;;12.60;99.90;;;;;;5112883;27;19919;-64
2023/07/26 02:11:02;;;;;;;6.53;2.42;;;12.60;99.90;;;;;;5114065;27;20041;-64
2023/07/26 02:13:30;;;;;;;5.50;2.50;;;12.50;99.90;;;;;;5128003;27;20057;-64
2023/07/26 02:15:56;;;;;;;10.35;2.55;;;12.50;99.90;;;;;;5132734;27;20042;-64
2023/07/26 02:18:25;;;;;;;4.72;2.38;;;12.50;99.90;;;;;;5112095;27;20055;-64
2023/07/26 02:20:52;;;;;;;4.47;2.70;;;12.50;99.90;;;;;;5131805;27;20399;-64
2023/07/26 02:23:19;;;;;;;7.00;3.10;;;12.50;99.90;;;;;;5115390;27;20041;-65
2023/07/26 02:25:46;;;;;;;5.85;2.83;;;12.50;99.90;;;;;;5132487;27;20042;-64
2023/07/26 02:28:13;;;;;;;4.75;3.20;;;12.50;99.90;;;;;;5113233;27;20092;-64
2023/07/26 02:30:41;;;;;;;4.13;2.80;;;12.50;99.90;;;;;;5113272;27;20043;-64
2023/07/26 02:33:08;;;;;;;3.63;1.90;;;12.50;99.90;;;;;;5111162;27;20046;-64
2023/07/26 02:35:35;;;;;;;5.78;3.03;;;12.50;99.90;;;;;;5104384;27;20046;-64
2023/07/26 02:38:03;;;;;;;5.97;2.55;;;12.40;99.90;;;;;;5110190;27;20075;-64
2023/07/26 02:40:30;;;;;;;4.43;2.88;;;12.50;99.90;;;;;;5131390;27;20035;-64
2023/07/26 02:42:57;;;;;;;7.80;3.00;;;12.40;99.90;;;;;;5112700;27;20126;-64
2023/07/26 02:45:24;;;;;;;4.80;3.22;;;12.40;99.90;;;;;;5111820;28;20047;-64
2023/07/26 02:47:50;;;;;;;7.47;2.90;;;12.40;99.90;;;;;;5132190;27;20035;-65
2023/07/26 02:50:17;;;;;;;6.60;2.65;;;12.40;99.90;;;;;;5130927;27;20043;-64
2023/07/26 02:52:44;;;;;;;6.70;3.40;;;12.40;99.90;;;;;;5113760;28;20047;-64
2023/07/26 02:55:11;;;;;;;6.50;3.28;;;12.30;99.90;;;;;;5111194;28;20043;-64
2023/07/26 02:57:38;;;;;;;7.60;3.35;;;12.30;99.90;;;;;;5093150;28;20100;-64
2023/07/26 03:00:05;;;;;;;5.75;3.13;;;12.30;99.90;;;;;;5107486;28;20126;-64
2023/07/26 03:02:32;;;;;;;6.72;3.30;;;12.30;99.90;;;;;;5113372;28;20043;-64
2023/07/26 03:04:59;;;;;;;5.20;3.63;;;12.40;99.90;;;;;;5108654;28;20049;-64
2023/07/26 03:07:26;;;;;;;4.78;2.92;;;12.30;99.90;;;;;;5135091;27;20031;-64
2023/07/26 03:09:53;;;;;;;6.47;2.63;;;12.30;99.90;;;;;;5111731;27;20047;-64
2023/07/26 03:12:20;;;;;;;6.60;3.20;;;12.30;99.90;;;;;;5113619;27;20062;-65
2023/07/26 03:14:47;;;;;;;10.10;3.75;;;12.30;99.90;;;;;;5109545;28;20054;-64
2023/07/26 03:17:13;;;;;;;3.55;2.80;;;12.30;99.90;;;;;;5132441;27;20063;-64
2023/07/26 03:19:50;;;;;;;5.57;2.92;;;12.30;99.90;;;;;;5115378;27;20035;-64
2023/07/26 03:22:17;;;;;;;3.92;3.05;;;12.20;99.90;;;;;;5108852;27;20142;-64
2023/07/26 03:24:43;;;;;;;7.88;3.45;;;12.20;99.90;;;;;;5126701;27;20038;-64
2023/07/26 03:27:11;;;;;;;4.18;2.88;;;12.20;99.90;;;;;;5112369;28;20043;-64
2023/07/26 03:29:37;;;;;;;4.10;3.08;;;12.20;99.90;;;;;;5115204;27;20522;-64
2023/07/26 03:32:05;;;;;;;5.10;2.88;;;12.20;99.90;;;;;;5137711;27;20514;-64
2023/07/26 03:34:31;;;;;;;5.78;3.00;;;12.30;99.90;;;;;;5134937;27;20104;-64
2023/07/26 03:36:58;;;;;;;9.57;3.10;;;12.30;99.90;;;;;;5136785;27;20043;-67
2023/07/26 03:39:25;;;;;;;6.72;3.13;;;12.30;99.90;;;;;;5120918;27;20047;-64
2023/07/26 03:41:52;;;;;;;3.95;3.03;;;12.30;99.90;;;;;;5105242;27;20152;-64
2023/07/26 03:44:19;;;;;;;8.05;3.33;;;12.30;99.90;;;;;;5133502;27;20118;-64
2023/07/26 03:46:48;;;;;;;9.13;4.20;;;12.20;99.90;;;;;;5109310;27;20046;-64
2023/07/26 03:49:15;;;;;;;4.80;3.42;;;12.30;99.90;;;;;;5146308;27;20045;-64
2023/07/26 03:51:42;;;;;;;13.82;3.72;;;12.30;99.90;;;;;;5112808;27;20042;-64
2023/07/26 03:54:09;;;;;;;7.25;3.60;;;12.30;99.90;;;;;;5134662;27;20410;-64
2023/07/26 03:56:35;;;;;;;8.00;3.50;;;12.30;99.90;;;;;;5145012;27;20038;-64
2023/07/26 03:59:02;;;;;;;7.38;3.53;;;12.30;99.90;;;;;;5145145;27;20051;-64
2023/07/26 04:01:29;;;;;;;10.30;4.13;;;12.20;99.90;;;;;;5117352;27;20108;-64
2023/07/26 04:03:56;;;;;;;;;;;12.30;99.90;;;;;;5135039;27;20031;-64
2023/07/26 04:06:23;;;;;;;5.05;3.90;;;12.20;99.90;;;;;;5112986;27;19919;-64
2023/07/26 04:08:50;;;;;;;6.85;4.00;;;12.30;99.90;;;;;;5119915;27;20055;-64
2023/07/26 04:11:17;;;;;;;6.80;4.00;;;12.30;99.90;;;;;;5135137;27;20050;-63
2023/07/26 04:13:44;;;;;;;7.18;3.75;;;12.30;99.90;;;;;;5133247;27;20043;-64
2023/07/26 04:16:19;;;;;;;6.97;3.58;;;12.30;99.90;;;;;;5133448;27;20491;-64
2023/07/26 04:18:46;;;;;;;6.93;3.85;;;12.30;99.90;;;;;;5127341;27;20067;-64
2023/07/26 04:21:15;;;;;;;7.35;3.75;;;12.20;99.90;;;;;;5141420;27;20853;-64
2023/07/26 04:23:42;;;;;;;6.05;4.03;;;12.30;99.90;;;;;;5131942;27;20100;-64
2023/07/26 04:26:09;;;;;;;7.47;3.83;;;12.40;99.90;;;;;;5129126;27;20051;-65
2023/07/26 04:28:36;;;;;;;5.45;3.50;;;12.40;99.90;;;;;;5134235;27;20403;-64
2023/07/26 04:31:03;;;;;;;8.80;4.00;;;12.40;99.90;;;;;;5132903;27;20122;-65
2023/07/26 04:33:30;;;;;;;5.35;3.35;;;12.30;99.90;;;;;;5134022;27;20092;-64
2023/07/26 04:35:57;;;;;;;6.40;3.72;;;12.40;99.90;;;;;;5115201;27;20050;-64
2023/07/26 04:38:27;;;;;;;7.07;3.88;;;12.40;99.90;;;;;;5130625;27;20122;-64
2023/07/26 04:40:54;;;;;;;6.38;4.10;;;12.40;99.90;;;;;;5131225;27;20510;-65
2023/07/26 04:43:21;;;;;;;9.05;3.95;;;12.40;99.90;;;;;;5115442;27;20039;-64
2023/07/26 04:45:49;;;;;;;8.38;4.03;;;12.50;99.90;;;;;;5114570;27;20035;-64
2023/07/26 04:48:18;;;;;;;7.82;4.00;;;12.60;99.90;;;;;;5097801;27;20055;-64
2023/07/26 04:50:47;;;;;;;7.22;4.07;;;12.60;99.90;;;;;;5133027;27;20039;-64
2023/07/26 04:53:14;;;;;;;4.20;3.40;;;12.60;99.90;;;;;;5133556;27;20061;-64
2023/07/26 04:55:45;;;;;;;;;;;12.70;99.90;;;;;;5132060;27;20048;-64
2023/07/26 04:58:12;;;;;;;7.57;4.25;;;12.70;99.90;;;;;;5114933;27;19963;-64
2023/07/26 05:00:39;;;;;;;6.68;3.78;;;12.70;99.90;;;;;;5127550;27;20051;-64
2023/07/26 05:03:07;;;;;;;5.00;3.13;;;12.70;99.90;;;;;;5133269;27;20495;-64
2023/07/26 05:05:34;;;;;;;6.78;3.92;;;12.70;99.90;;;;;;5116034;27;20444;-63
2023/07/26 05:08:02;;;;;;;5.53;3.13;;;12.70;99.90;;;;;;5134309;27;20039;-63
2023/07/26 05:10:30;;;;;;;5.88;3.55;;;12.70;99.90;;;;;;5109831;27;20028;-64
2023/07/26 05:12:57;;;;;;;5.05;2.63;;;12.70;99.90;;;;;;5107433;27;20053;-64
2023/07/26 05:15:24;;;;;;;;;;;12.70;99.90;;;;;;5131306;27;20047;-64
2023/07/26 05:17:52;;;;;;;4.55;2.95;;;12.60;99.90;;;;;;5132130;27;20010;-64
2023/07/26 05:20:19;;;;;;;6.18;3.08;;;12.60;99.90;;;;;;5121061;27;20043;-63
2023/07/26 05:22:45;;;;;;;4.43;3.03;;;12.60;99.90;;;;;;5131361;27;20122;-63
2023/07/26 05:25:12;;;;;;;7.32;3.67;;;12.60;99.90;;;;;;5126802;27;20069;-63
2023/07/26 05:27:39;;;;;;;5.07;3.63;;;12.50;99.90;;;;;;5122442;27;20055;-64
2023/07/26 05:30:06;;;;;;;4.47;3.05;;;12.60;99.90;;;;;;5130649;27;20051;-64
2023/07/26 05:32:34;;;;;;;4.60;3.03;;;12.60;99.90;;;;;;5130453;27;20043;-64
2023/07/26 05:35:02;;;;;;;3.90;2.60;;;12.60;99.90;;;;;;5132025;27;20050;-64
2023/07/26 05:37:34;;;;;;;3.75;2.70;;;12.60;99.90;;;;;;5134206;27;20043;-64
2023/07/26 05:40:01;;;;;;;4.03;2.72;;;12.50;99.90;;;;;;5126797;27;20122;-64
2023/07/26 05:42:27;;;;;;;4.25;2.90;;;12.60;99.90;;;;;;5128678;27;20532;-66
2023/07/26 05:44:54;;;;;;;5.43;2.70;;;12.50;99.90;;;;;;5131462;27;20043;-65
2023/07/26 05:47:21;;;;;;;6.57;3.30;;;12.60;99.90;;;;;;5131759;27;20035;-65
2023/07/26 05:49:48;;;;;;;19.10;4.63;;;12.60;99.90;;;;;;5131477;27;20067;-65
2023/07/26 05:52:14;;;;;;;56.70;6.20;;;12.60;99.90;;;;;;5129487;27;20047;-65
2023/07/26 05:54:41;;;;;;;3.53;3.08;;;12.60;99.90;;;;;;5132003;27;20035;-65
2023/07/26 05:57:08;;;;;;;4.43;3.05;;;12.70;99.90;;;;;;5124992;27;20046;-65
2023/07/26 05:59:35;;;;;;;17.23;3.90;;;12.70;99.90;;;;;;5125750;27;20047;-65
2023/07/26 06:02:02;;;;;;;12.02;4.13;;;12.70;99.90;;;;;;5132576;27;20483;-64
2023/07/26 06:04:29;;;;;;;;;;;12.80;99.90;;;;;;5132675;27;20047;-64
2023/07/26 06:06:56;;;;;;;6.57;4.25;;;12.80;99.90;;;;;;5130920;27;19924;-64
2023/07/26 06:09:25;;;;;;;6.32;4.30;;;12.80;99.90;;;;;;5128526;27;20050;-64
2023/07/26 06:11:52;;;;;;;5.95;3.83;;;12.70;99.90;;;;;;5131183;27;20515;-64
2023/07/26 06:14:24;;;;;;;7.40;4.95;;;12.70;99.90;;;;;;5130835;27;20043;-64
2023/07/26 06:16:52;;;;;;;6.65;3.95;;;12.70;99.90;;;;;;5131714;27;20047;-64
2023/07/26 06:19:19;;;;;;;6.07;4.05;;;12.70;99.90;;;;;;5131987;27;20130;-64
2023/07/26 06:21:46;;;;;;;8.85;4.30;;;12.70;99.90;;;;;;5131333;27;20074;-64
2023/07/26 06:24:13;;;;;;;5.72;3.92;;;12.70;99.90;;;;;;5125691;27;20130;-64
2023/07/26 06:26:40;;;;;;;6.40;4.10;;;12.70;99.90;;;;;;5129711;27;20448;-64
2023/07/26 06:29:06;;;;;;;6.25;3.80;;;12.80;99.90;;;;;;5129013;27;20039;-64
2023/07/26 06:31:33;;;;;;;4.28;3.00;;;12.80;99.90;;;;;;5131916;27;20118;-64
2023/07/26 06:34:00;;;;;;;;;;;12.80;99.90;;;;;;5130987;27;20483;-64
2023/07/26 06:36:27;;;;;;;5.47;2.28;;;12.70;99.90;;;;;;5130422;27;19927;-64
2023/07/26 06:38:54;;;;;;;3.70;2.33;;;12.60;99.90;;;;;;5132451;27;20036;-64
2023/07/26 06:41:21;;;;;;;4.25;1.90;;;13.10;99.90;;;;;;5130662;27;20066;-64
2023/07/26 06:43:48;;;;;;;4.78;1.95;;;12.60;99.90;;;;;;5130280;27;20039;-64
2023/07/26 06:46:14;;;;;;;2.72;0.93;;;12.60;99.90;;;;;;5108769;28;20058;-64
2023/07/26 06:48:41;;;;;;;1.23;0.77;;;12.50;99.90;;;;;;5124691;27;20035;-64
2023/07/26 06:51:11;;;;;;;2.03;0.70;;;12.40;99.90;;;;;;5128772;27;20035;-64
2023/07/26 06:53:38;;;;;;;2.20;0.60;;;12.30;99.90;;;;;;5126847;27;20032;-64
2023/07/26 06:56:05;;;;;;;0.75;0.60;;;12.20;99.90;;;;;;5131217;27;20110;-64
2023/07/26 06:58:32;;;;;;;1.23;0.85;;;12.20;99.90;;;;;;5132588;28;20049;-64
2023/07/26 07:00:59;;;;;;;2.75;0.70;;;12.20;99.90;;;;;;5128387;28;20058;-64
2023/07/26 07:03:27;;;;;;;0.88;0.60;;;12.20;99.90;;;;;;5132261;27;20109;-64
2023/07/26 07:05:54;;;;;;;1.95;0.60;;;12.30;99.90;;;;;;5130724;28;20473;-64
2023/07/26 07:08:21;;;;;;;2.05;0.90;;;12.30;99.90;;;;;;5105350;28;20082;-64
2023/07/26 07:10:48;;;;;;;0.43;0.40;;;12.30;99.90;;;;;;5127108;28;20073;-64
2023/07/26 07:13:14;;;;;;;0.77;0.60;;;12.30;99.90;;;;;;5112439;28;20045;-64
2023/07/26 07:15:41;;;;;;;0.57;0.57;;;12.20;99.90;;;;;;5125524;27;20054;-64
2023/07/26 07:18:08;;;;;;;0.60;0.47;;;12.20;99.90;;;;;;5131938;28;20075;-64
2023/07/26 07:20:42;;;;;;;1.05;0.45;;;12.20;99.90;;;;;;5126613;28;20057;-64
2023/07/26 07:23:09;;;;;;;1.35;0.50;;;12.30;99.90;;;;;;5131744;27;20039;-64
2023/07/26 07:25:39;;;;;;;0.73;0.47;;;12.30;99.90;;;;;;5129292;27;20031;-64
2023/07/26 07:28:06;;;;;;;2.03;0.60;;;12.40;99.90;;;;;;5131782;28;20114;-64
2023/07/26 07:30:33;;;;;;;0.90;0.82;;;12.40;99.90;;;;;;5128523;28;20031;-63
2023/07/26 07:32:59;;;;;;;2.05;0.65;;;12.50;99.90;;;;;;5123907;27;20055;-64
2023/07/26 07:35:27;;;;;;;1.77;0.70;;;12.60;99.90;;;;;;5131028;28;20437;-64
2023/07/26 07:37:54;;;;;;;;;;;12.60;99.90;;;;;;5131885;28;20119;-64
2023/07/26 07:40:21;;;;;;;2.08;1.50;;;12.70;99.90;;;;;;5126399;28;19926;-64
2023/07/26 07:42:48;;;;;;;1.35;0.93;;;12.70;99.90;;;;;;5130636;27;20116;-64
2023/07/26 07:45:15;;;;;;;2.13;0.80;;;12.70;99.90;;;;;;5124775;27;20035;-64
2023/07/26 07:47:42;;;;;;;3.35;1.10;;;12.70;99.90;;;;;;5128103;28;20054;-64
2023/07/26 07:50:09;;;;;;;1.35;0.68;;;12.70;99.90;;;;;;5122790;28;20070;-64
2023/07/26 07:52:35;;;;;;;1.50;0.80;;;12.70;99.90;;;;;;5130045;27;20043;-64
2023/07/26 07:55:02;;;;;;;2.95;0.73;;;12.70;99.90;;;;;;5122036;27;20036;-64
2023/07/26 07:57:29;;;;;;;0.60;0.60;;;12.70;99.90;;;;;;5134886;27;20054;-64
2023/07/26 07:59:56;;;;;;;1.33;0.68;;;12.80;99.90;;;;;;5134357;27;20035;-64
2023/07/26 08:02:23;;;;;;;0.95;0.65;;;12.80;99.90;;;;;;5132284;27;20043;-64
2023/07/26 08:04:50;;;;;;;0.50;0.47;;;12.80;99.90;;;;;;5133162;27;20039;-64
2023/07/26 08:07:17;;;;;;;0.77;0.77;;;12.80;99.90;;;;;;5134557;27;20267;-64
2023/07/26 08:09:44;;;;;;;1.58;1.00;;;12.80;99.90;;;;;;5128552;27;20045;-64
2023/07/26 08:12:11;;;;;;;0.85;0.65;;;12.80;99.90;;;;;;5134669;27;20118;-64
2023/07/26 08:14:37;;;;;;;1.13;0.77;;;12.80;99.90;;;;;;5132277;27;20531;-64
2023/07/26 08:17:04;;;;;;;1.52;0.80;;;12.90;99.90;;;;;;5134497;27;20116;-64
2023/07/26 08:19:31;;;;;;;;;;;13.00;99.90;;;;;;5135134;27;20100;-64
2023/07/26 08:21:58;;;;;;;0.82;0.63;;;12.90;99.90;;;;;;5129432;27;19989;-64
2023/07/26 08:24:25;;;;;;;;;;;13.10;99.90;;;;;;5110000;28;20036;-64
2023/07/26 08:26:53;;;;;;;1.25;0.60;;;13.20;99.90;;;;;;5108670;27;20275;-64
2023/07/26 08:29:20;;;;;;;0.80;0.80;;;13.60;99.90;;;;;;5133915;27;20371;-64
2023/07/26 08:31:46;;;;;;;0.90;0.70;;;13.80;99.90;;;;;;5128322;27;20096;-64
2023/07/26 08:34:13;;;;;;;1.83;0.75;;;14.00;99.90;;;;;;5126404;27;20064;-65
2023/07/26 08:36:40;;;;;;;2.20;1.20;;;14.10;99.90;;;;;;5133898;27;20039;-64
2023/07/26 08:39:06;;;;;;;1.90;0.60;;;13.90;99.90;;;;;;5129685;27;20402;-64
2023/07/26 08:41:38;;;;;;;3.28;0.95;;;13.70;99.90;;;;;;5132834;27;20031;-64
2023/07/26 08:44:07;;;;;;;1.73;0.88;;;13.70;99.90;;;;;;5126261;27;20425;-64
2023/07/26 08:46:35;;;;;;;1.67;0.60;;;13.70;99.90;;;;;;5133724;27;20476;-64
2023/07/26 08:49:02;;;;;;;1.02;0.50;;;13.80;99.90;;;;;;5126495;27;20039;-64
2023/07/26 08:51:29;;;;;;;0.93;0.52;;;13.70;99.90;;;;;;5133944;27;20051;-64
2023/07/26 08:53:57;;;;;;;0.55;0.55;;;13.70;99.90;;;;;;5134269;27;20458;-64
2023/07/26 08:56:28;;;;;;;0.80;0.45;;;13.40;99.90;;;;;;5132336;27;20035;-64
2023/07/26 08:58:55;;;;;;;0.70;0.40;;;13.10;99.90;;;;;;5130752;27;20100;-64
2023/07/26 09:01:23;;;;;;;0.93;0.50;;;12.90;99.90;;;;;;5133166;27;20035;-64
2023/07/26 09:03:50;;;;;;;;;;;12.70;99.90;;;;;;5130179;27;20036;-64
2023/07/26 09:06:17;;;;;;;2.22;0.60;;;12.80;99.90;;;;;;5128422;27;19919;-64
2023/07/26 09:08:43;;;;;;;1.77;0.80;;;12.90;99.90;;;;;;5133324;27;20041;-64
2023/07/26 09:11:25;;;;;;;1.13;0.50;;;13.00;99.90;;;;;;5127979;27;20050;-64
2023/07/26 09:13:56;;;;;;;0.85;0.70;;;13.00;99.90;;;;;;5127329;27;20386;-64
2023/07/26 09:16:30;;;;;;;0.60;0.60;;;13.20;99.90;;;;;;5127056;27;20038;-64
2023/07/26 09:18:59;;;;;;;3.45;0.60;;;13.30;99.90;;;;;;5132958;27;20764;-64
2023/07/26 09:21:27;;;;;;;0.60;0.60;;;13.40;99.90;;;;;;5128421;27;20157;-64
2023/07/26 09:23:57;;;;;;;0.82;0.50;;;13.60;99.90;;;;;;5126591;27;20047;-64
2023/07/26 09:26:36;;;;;;;2.22;0.68;;;13.60;99.90;;;;;;5125584;27;20035;-64
2023/07/26 09:29:08;;;;;;;0.90;0.63;;;13.60;99.90;;;;;;5130521;27;20047;-64
2023/07/26 09:31:35;;;;;;;4.40;0.60;;;13.50;99.90;;;;;;5133553;27;20035;-64
2023/07/26 09:34:04;;;;;;;0.77;0.30;;;13.50;99.90;;;;;;5132628;27;20072;-64
2023/07/26 09:36:45;;;;;;;0.45;0.45;;;13.40;99.90;;;;;;5121841;27;20132;-64
2023/07/26 09:39:13;;;;;;;1.20;0.60;;;13.40;99.90;;;;;;5124739;27;20047;-64
2023/07/26 09:41:40;;;;;;;1.33;0.57;;;13.30;99.90;;;;;;5133417;27;20045;-64
2023/07/26 09:44:17;;;;;;;1.60;0.60;;;13.20;99.90;;;;;;5126408;27;20031;-64
2023/07/26 09:46:56;;;;;;;0.80;0.47;;;13.20;99.90;;;;;;5133348;27;20376;-64
2023/07/26 09:49:26;;;;;;;0.88;0.60;;;13.30;99.90;;;;;;5125952;27;20035;-64
2023/07/26 09:51:57;;;;;;;0.98;0.40;;;13.40;99.90;;;;;;5124348;27;20099;-64
2023/07/26 09:54:32;;;;;;;0.50;0.40;;;13.50;99.90;;;;;;5132365;27;20046;-64
2023/07/26 09:57:03;;;;;;;1.52;0.60;;;13.50;99.90;;;;;;5132791;27;20051;-64
2023/07/26 09:59:33;;;;;;;1.45;0.98;;;13.50;99.90;;;;;;5132131;27;20042;-64
2023/07/26 10:02:04;;;;;;;3.35;0.60;;;13.60;99.90;;;;;;5130794;27;20450;-64
2023/07/26 10:04:45;;;;;;;2.40;0.55;;;13.60;99.90;;;;;;5123261;27;20500;-64
2023/07/26 10:07:13;;;;;;;0.75;0.70;;;13.60;99.90;;;;;;5124138;27;20039;-64
2023/07/26 10:09:44;;;;;;;0.98;0.50;;;13.90;99.90;;;;;;5132391;27;20039;-64
2023/07/26 10:12:12;;;;;;;2.45;0.52;;;14.20;99.90;;;;;;5132070;27;20548;-64
2023/07/26 10:14:39;;;;;;;1.30;0.68;;;14.30;99.90;;;;;;5130095;27;20129;-64
2023/07/26 10:17:06;;;;;;;;;;;14.60;99.90;;;;;;5127028;27;20499;-64
2023/07/26 10:19:35;;;;;;;1.15;0.60;;;14.90;99.90;;;;;;5132358;27;20264;-65
2023/07/26 10:22:03;;;;;;;1.83;0.95;;;15.00;99.90;;;;;;5109097;27;20655;-64
2023/07/26 10:24:31;;;;;;;2.17;0.85;;;15.20;99.90;;;;;;5127908;27;20078;-64
2023/07/26 10:27:00;;;;;;;0.95;0.57;;;15.50;99.90;;;;;;5131384;27;20039;-64
2023/07/26 10:29:26;;;;;;;1.08;0.70;;;15.50;99.90;;;;;;5131887;27;20430;-64
2023/07/26 10:32:05;;;;;;;0.70;0.60;;;15.60;99.90;;;;;;5128723;27;20031;-64
2023/07/26 10:34:32;;;;;;;0.80;0.47;;;15.70;99.90;;;;;;5115063;27;21285;-64
2023/07/26 10:36:59;;;;;;;2.10;0.63;;;15.80;99.90;;;;;;5125968;27;20043;-64
2023/07/26 10:39:32;;;;;;;0.77;0.70;;;15.80;99.90;;;;;;5118962;27;20399;-64
2023/07/26 10:42:01;;;;;;;0.82;0.55;;;15.80;99.90;;;;;;5128162;27;20047;-64
2023/07/26 10:44:28;;;;;;;0.65;0.65;;;15.90;99.90;;;;;;5121140;27;20043;-64
2023/07/26 10:47:01;;;;;;;2.30;0.50;;;16.10;99.90;;;;;;5127541;27;20417;-64
2023/07/26 10:49:33;;;;;;;2.20;0.80;;;16.40;99.90;;;;;;5123784;27;20052;-64
2023/07/26 10:52:02;;;;;;;0.80;0.63;;;16.50;99.90;;;;;;5127689;27;20048;-64
2023/07/26 10:54:33;;;;;;;1.08;0.60;;;16.70;99.90;;;;;;5123714;27;20039;-64
2023/07/26 10:57:21;;;;;;;1.08;0.70;;;16.70;99.90;;;;;;5131772;27;20049;-64
2023/07/26 11:00:04;;;;;;;0.73;0.55;;;16.90;99.90;;;;;;5120007;28;20400;-64
2023/07/26 11:02:35;;;;;;;1.30;0.50;;;17.60;99.90;;;;;;5124392;27;20373;-64
2023/07/26 11:05:05;;;;;;;1.67;0.68;;;18.10;99.90;;;;;;5131154;28;20096;-64
2023/07/26 11:07:51;;;;;;;0.75;0.50;;;18.10;99.90;;;;;;5131945;27;20039;-64
2023/07/26 11:10:30;;;;;;;0.40;0.40;;;17.80;99.90;;;;;;5122336;28;20039;-64
2023/07/26 11:13:16;;;;;;;1.65;0.70;;;18.20;99.90;;;;;;5129661;27;20359;-64
2023/07/26 11:15:48;;;;;;;0.50;0.50;;;18.50;99.90;;;;;;5123899;28;20127;-65
2023/07/26 11:18:40;;;;;;;0.55;0.45;;;18.80;99.90;;;;;;5124656;27;20444;-64
2023/07/26 11:21:12;;;;;;;3.40;1.58;;;18.90;99.90;;;;;;5117788;27;20545;-64
2023/07/26 11:23:39;;;;;;;0.85;0.50;;;19.20;99.90;;;;;;5126749;28;20349;-64
2023/07/26 11:26:06;;;;;;;1.88;0.50;;;19.50;99.90;;;;;;5112832;28;20046;-64
2023/07/26 11:28:33;;;;;;;1.25;0.70;;;19.40;99.90;;;;;;5130701;27;20039;-64
2023/07/26 11:31:01;;;;;;;1.52;0.70;;;19.30;99.90;;;;;;5135094;27;20130;-64
2023/07/26 11:33:32;;;;;;;0.70;0.60;;;18.90;99.90;;;;;;5134576;27;20430;-65
2023/07/26 11:36:00;;;;;;;0.60;0.60;;;19.20;99.90;;;;;;5133543;27;20399;-64
2023/07/26 11:38:27;;;;;;;1.38;0.70;;;19.10;99.90;;;;;;5125977;27;20039;-65
2023/07/26 11:40:57;;;;;;;0.60;0.60;;;18.90;99.90;;;;;;5135152;27;20042;-64
2023/07/26 11:43:26;;;;;;;0.70;0.60;;;18.70;99.90;;;;;;5134472;27;20074;-64
2023/07/26 11:45:54;;;;;;;1.15;0.60;;;18.80;99.90;;;;;;5130296;27;20059;-64
2023/07/26 11:48:21;;;;;;;0.80;0.63;;;18.90;99.90;;;;;;5133198;27;20118;-65
2023/07/26 11:50:52;;;;;;;0.95;0.70;;;19.10;99.90;;;;;;5107129;27;20051;-65
2023/07/26 11:53:28;;;;;;;0.82;0.60;;;19.30;99.90;;;;;;5134402;27;20031;-64
2023/07/26 11:56:09;;;;;;;1.13;1.00;;;19.10;99.90;;;;;;5135331;27;20396;-65
2023/07/26 11:58:36;;;;;;;0.80;0.60;;;19.10;99.90;;;;;;5129836;27;20126;-65
2023/07/26 12:01:03;;;;;;;2.05;0.80;;;19.30;99.90;;;;;;5131115;27;20039;-65
2023/07/26 12:03:31;;;;;;;1.35;0.70;;;19.40;99.90;;;;;;5130670;27;20043;-65
2023/07/26 12:05:58;;;;;;;0.80;0.70;;;19.70;99.90;;;;;;5105068;28;20047;-65
2023/07/26 12:08:33;;;;;;;0.88;0.63;;;19.10;99.90;;;;;;5130249;27;20124;-65
2023/07/26 12:11:05;;;;;;;1.00;0.85;;;19.40;99.90;;;;;;5130501;27;20429;-65
2023/07/26 12:13:33;;;;;;;0.75;0.60;;;19.90;99.90;;;;;;5134037;27;20092;-65
2023/07/26 12:16:02;;;;;;;2.47;0.70;;;20.40;99.90;;;;;;5135309;27;20505;-65
2023/07/26 12:18:29;;;;;;;1.70;0.70;;;20.30;99.90;;;;;;5128696;27;20051;-65
2023/07/26 12:21:09;;;;;;;1.48;0.65;;;20.40;99.90;;;;;;5127944;27;20044;-65
2023/07/26 12:23:51;;;;;;;1.50;0.60;;;20.20;99.20;;;;;;5128091;27;20702;-65
2023/07/26 12:26:30;;;;;;;0.57;0.57;;;20.10;99.90;;;;;;5134511;27;20510;-65
2023/07/26 12:29:00;;;;;;;1.38;0.75;;;20.30;99.90;;;;;;5127575;27;20541;-65
2023/07/26 12:31:30;;;;;;;3.20;1.00;;;20.30;99.90;;;;;;5126849;27;20055;-65
2023/07/26 12:34:04;;;;;;;1.58;0.77;;;20.80;99.90;;;;;;5133671;27;20047;-65
2023/07/26 12:36:47;;;;;;;2.30;0.73;;;21.00;99.90;;;;;;5131047;27;20783;-65
2023/07/26 12:39:17;;;;;;;2.15;0.82;;;20.90;99.90;;;;;;5126312;27;20051;-65
2023/07/26 12:41:45;;;;;;;0.80;0.70;;;21.00;99.90;;;;;;5115305;27;20043;-65
2023/07/26 12:44:14;;;;;;;1.15;0.70;;;21.00;99.90;;;;;;5130844;27;20514;-65
2023/07/26 12:46:46;;;;;;;0.80;0.70;;;21.40;99.90;;;;;;5129660;27;20047;-65
2023/07/26 12:49:15;;;;;;;1.58;0.80;;;21.50;99.90;;;;;;5131128;27;20043;-65
2023/07/26 12:51:42;;;;;;;1.15;0.90;;;21.70;99.90;;;;;;5114190;27;20047;-65
2023/07/26 12:54:09;;;;;;;1.98;0.95;;;21.40;99.90;;;;;;5124130;27;20147;-65
2023/07/26 12:56:36;;;;;;;0.80;0.80;;;20.80;99.90;;;;;;5133415;27;20039;-65
2023/07/26 12:59:03;;;;;;;3.25;1.20;;;20.20;99.90;;;;;;5130884;27;20495;-65